createdAt,value
2023-05-16T00:02:52.202Z,2.67
2023-05-16T00:08:14.229Z,2.50
2023-05-16T00:13:36.081Z,2.50
2023-05-16T00:18:58.179Z,2.45
2023-05-16T00:24:19.983Z,2.78
2023-05-16T00:29:41.750Z,2.17
2023-05-16T00:35:04.228Z,2.58
2023-05-16T00:40:26.334Z,2.97
2023-05-16T00:45:49.044Z,2.20
2023-05-16T00:51:11.163Z,2.28
2023-05-16T00:56:34.124Z,2.13
2023-05-16T01:01:56.811Z,2.28
2023-05-16T01:07:19.023Z,1.98
2023-05-16T01:12:58.164Z,2.10
2023-05-16T01:18:34.717Z,1.90
2023-05-16T01:24:08.820Z,2.40
2023-05-16T01:29:30.764Z,2.22
2023-05-16T01:34:53.075Z,2.08
2023-05-16T01:40:35.628Z,2.00
2023-05-16T01:46:09.651Z,2.45
2023-05-16T01:51:35.832Z,2.53
2023-05-16T01:56:58.410Z,1.92
2023-05-16T02:02:20.880Z,2.10
2023-05-16T02:07:43.744Z,1.73
2023-05-16T02:13:05.576Z,2.45
2023-05-16T02:18:30.338Z,1.77
2023-05-16T02:23:52.294Z,1.77
2023-05-16T02:29:15.394Z,1.83
2023-05-16T02:34:37.348Z,2.00
2023-05-16T02:39:59.441Z,1.80
2023-05-16T02:45:21.393Z,1.60
2023-05-16T02:50:43.440Z,1.80
2023-05-16T02:56:07.254Z,1.95
2023-05-16T03:01:29.243Z,1.98
2023-05-16T03:06:51.514Z,1.70
2023-05-16T03:12:13.419Z,1.70
2023-05-16T03:17:35.565Z,2.05
2023-05-16T03:22:57.388Z,2.00
2023-05-16T03:28:19.211Z,1.67
2023-05-16T03:33:40.979Z,1.73
2023-05-16T03:39:02.898Z,1.77
2023-05-16T03:44:24.752Z,1.92
2023-05-16T03:49:46.529Z,1.90
2023-05-16T03:55:09.508Z,1.85
2023-05-16T04:00:31.344Z,1.98
2023-05-16T04:05:53.145Z,2.15
2023-05-16T04:11:14.907Z,1.67
2023-05-16T04:16:36.709Z,1.63
2023-05-16T04:21:58.654Z,1.65
2023-05-16T04:27:20.452Z,1.27
2023-05-16T04:32:42.366Z,1.52
2023-05-16T04:38:04.969Z,1.38
2023-05-16T04:43:27.051Z,1.80
2023-05-16T04:48:49.006Z,1.77
2023-05-16T04:54:11.032Z,1.63
2023-05-16T04:59:32.833Z,1.50
2023-05-16T05:04:55.015Z,1.30
2023-05-16T05:10:16.990Z,1.38
2023-05-16T05:15:39.189Z,1.52
2023-05-16T05:21:01.082Z,1.20
2023-05-16T05:26:25.716Z,1.50
2023-05-16T05:31:47.667Z,1.93
2023-05-16T05:37:09.659Z,2.03
2023-05-16T05:42:31.430Z,2.00
2023-05-16T05:47:53.430Z,2.05
2023-05-16T05:53:15.355Z,2.72
2023-05-16T05:58:37.239Z,2.08
2023-05-16T06:04:00.153Z,2.22
2023-05-16T06:09:23.775Z,2.33
2023-05-16T06:14:45.616Z,1.90
2023-05-16T06:20:08.336Z,2.25
2023-05-16T06:25:30.644Z,2.08
2023-05-16T06:30:52.496Z,2.15
2023-05-16T06:36:14.310Z,2.50
2023-05-16T06:41:36.186Z,1.90
2023-05-16T06:46:58.146Z,1.70
2023-05-16T06:52:20.043Z,1.80
2023-05-16T06:57:41.922Z,2.35
2023-05-16T07:03:07.083Z,1.85
